createdAt,value
2023-05-05T00:01:41.214Z,15.68
2023-05-05T00:04:09.149Z,15.78
2023-05-05T00:06:39.374Z,15.83
2023-05-05T00:09:07.470Z,15.81
2023-05-05T00:11:35.236Z,15.83
2023-05-05T00:14:03.209Z,15.84
2023-05-05T00:16:32.401Z,15.87
2023-05-05T00:19:00.232Z,15.95
2023-05-05T00:21:28.843Z,15.93
2023-05-05T00:23:57.797Z,15.95
2023-05-05T00:26:25.662Z,15.94
2023-05-05T00:28:53.939Z,16.06
2023-05-05T00:31:22.757Z,16.03
2023-05-05T00:33:50.741Z,15.92
2023-05-05T00:36:18.723Z,15.88
2023-05-05T00:38:46.993Z,15.91
2023-05-05T00:41:16.028Z,15.90
2023-05-05T00:43:43.666Z,15.92
2023-05-05T00:46:16.176Z,15.94
2023-05-05T00:48:43.963Z,15.59
2023-05-05T00:51:12.878Z,15.80
2023-05-05T00:53:43.102Z,16.02
2023-05-05T00:56:11.120Z,16.06
2023-05-05T00:58:41.258Z,16.12
2023-05-05T01:01:09.172Z,16.20
2023-05-05T01:03:37.742Z,16.12
2023-05-05T01:06:10.131Z,15.98
2023-05-05T01:08:45.201Z,15.93
2023-05-05T01:11:17.954Z,15.98
2023-05-05T01:13:51.329Z,15.89
2023-05-05T01:16:20.536Z,15.82
2023-05-05T01:18:54.062Z,15.57
2023-05-05T01:21:27.284Z,15.39
2023-05-05T01:24:07.683Z,15.24
2023-05-05T01:26:51.726Z,15.16
2023-05-05T01:29:33.779Z,15.08
2023-05-05T01:32:04.776Z,14.80
2023-05-05T01:34:35.823Z,14.72
2023-05-05T01:37:07.694Z,14.60
2023-05-05T01:39:36.429Z,14.77
2023-05-05T01:42:07.485Z,14.77
2023-05-05T01:44:37.548Z,14.58
2023-05-05T01:47:09.512Z,14.38
2023-05-05T01:49:39.412Z,14.40
2023-05-05T01:52:08.527Z,14.45
2023-05-05T01:54:39.301Z,14.42
2023-05-05T01:57:08.567Z,14.39
2023-05-05T01:59:37.649Z,14.27
2023-05-05T02:02:08.200Z,13.98
2023-05-05T02:04:45.011Z,13.98
2023-05-05T02:07:17.185Z,14.29
2023-05-05T02:09:45.826Z,14.53
2023-05-05T02:12:15.129Z,14.49
2023-05-05T02:14:44.096Z,14.40
2023-05-05T02:17:16.219Z,14.33
2023-05-05T02:19:45.221Z,14.39
2023-05-05T02:22:16.624Z,14.50
2023-05-05T02:24:45.184Z,14.67
2023-05-05T02:27:15.857Z,14.38
2023-05-05T02:29:48.148Z,14.61
2023-05-05T02:32:22.118Z,14.80
2023-05-05T02:34:53.801Z,14.88
2023-05-05T02:37:24.459Z,14.98
2023-05-05T02:40:00.327Z,14.95
2023-05-05T02:42:35.128Z,14.84
2023-05-05T02:45:06.865Z,14.79
2023-05-05T02:47:39.159Z,14.68
2023-05-05T02:50:11.876Z,14.44
2023-05-05T02:52:46.898Z,14.40
2023-05-05T02:55:15.985Z,14.57
2023-05-05T02:57:48.819Z,14.75
2023-05-05T03:00:29.791Z,14.71
2023-05-05T03:03:07.125Z,14.86
2023-05-05T03:05:38.870Z,14.98
2023-05-05T03:08:14.065Z,15.09
2023-05-05T03:10:45.470Z,15.20
2023-05-05T03:13:18.147Z,15.19
2023-05-05T03:15:49.238Z,15.17
2023-05-05T03:18:23.652Z,15.12
2023-05-05T03:20:58.776Z,14.96
2023-05-05T03:23:27.396Z,14.84
2023-05-05T03:25:59.591Z,14.63
2023-05-05T03:28:32.854Z,14.46
2023-05-05T03:31:07.101Z,14.39
2023-05-05T03:33:39.578Z,14.36
2023-05-05T03:36:10.094Z,14.28
2023-05-05T03:38:38.215Z,14.22
2023-05-05T03:41:06.905Z,14.17
2023-05-05T03:43:35.890Z,14.04
2023-05-05T03:46:03.924Z,13.90
2023-05-05T03:48:34.430Z,13.72
2023-05-05T03:51:05.155Z,13.53
2023-05-05T03:53:35.775Z,13.49
2023-05-05T03:56:07.212Z,13.48
2023-05-05T03:58:36.735Z,13.53
2023-05-05T04:01:05.152Z,13.73
2023-05-05T04:03:33.389Z,13.84
2023-05-05T04:06:02.735Z,13.89
2023-05-05T04:08:33.872Z,13.90
2023-05-05T04:11:04.143Z,13.96
2023-05-05T04:13:34.115Z,14.01
2023-05-05T04:16:03.960Z,14.13
2023-05-05T04:18:32.788Z,13.98
2023-05-05T04:21:01.360Z,14.13
2023-05-05T04:23:29.346Z,14.35
2023-05-05T04:25:57.676Z,14.57
2023-05-05T04:28:29.985Z,14.84
2023-05-05T04:30:59.771Z,15.04
2023-05-05T04:33:28.637Z,15.22
2023-05-05T04:35:56.846Z,15.49
2023-05-05T04:38:24.877Z,15.76
2023-05-05T04:40:53.250Z,15.88
2023-05-05T04:43:21.473Z,15.89
2023-05-05T04:45:54.796Z,15.81
2023-05-05T04:48:26.327Z,15.78
2023-05-05T04:50:54.635Z,16.03
2023-05-05T04:53:22.577Z,16.41
2023-05-05T04:55:50.470Z,16.85
2023-05-05T04:58:18.997Z,16.82
2023-05-05T05:00:47.302Z,17.47
2023-05-05T05:03:16.773Z,18.12
2023-05-05T05:05:44.996Z,18.26
2023-05-05T05:08:12.779Z,18.79
2023-05-05T05:10:41.469Z,19.25
2023-05-05T05:13:11.957Z,19.47
2023-05-05T05:15:40.823Z,19.26
2023-05-05T05:18:09.046Z,19.13
2023-05-05T05:20:38.578Z,19.02
2023-05-05T05:23:06.852Z,18.98
2023-05-05T05:25:39.225Z,19.04
2023-05-05T05:28:10.802Z,18.90
2023-05-05T05:30:50.971Z,18.60
2023-05-05T05:33:18.953Z,18.30
2023-05-05T05:35:48.896Z,18.25
2023-05-05T05:38:18.781Z,18.58
2023-05-05T05:40:47.954Z,18.89
2023-05-05T05:43:15.988Z,19.03
2023-05-05T05:45:44.103Z,19.42
2023-05-05T05:48:12.241Z,20.12
2023-05-05T05:50:40.074Z,20.85
2023-05-05T05:53:09.363Z,20.95
2023-05-05T05:55:37.422Z,20.91
2023-05-05T05:58:05.832Z,20.84
2023-05-05T06:00:34.206Z,20.88
2023-05-05T06:03:08.327Z,21.12
2023-05-05T06:05:38.908Z,20.93
2023-05-05T06:08:09.579Z,21.31
2023-05-05T06:10:42.971Z,21.35
2023-05-05T06:13:16.798Z,21.24
2023-05-05T06:15:48.544Z,21.25
2023-05-05T06:18:17.395Z,21.55
2023-05-05T06:20:45.530Z,21.97
2023-05-05T06:23:17.552Z,22.23
2023-05-05T06:25:51.804Z,22.38
2023-05-05T06:28:20.377Z,22.16
2023-05-05T06:30:48.458Z,21.78
2023-05-05T06:33:16.860Z,21.44
2023-05-05T06:35:44.703Z,21.51
2023-05-05T06:38:13.170Z,21.82
2023-05-05T06:40:42.608Z,22.45
2023-05-05T06:43:11.269Z,22.95
2023-05-05T06:45:46.453Z,22.91
2023-05-05T06:48:14.658Z,23.11
2023-05-05T06:50:43.372Z,23.36
2023-05-05T06:53:11.548Z,23.08
2023-05-05T06:55:39.669Z,22.33
2023-05-05T06:58:12.151Z,21.73
2023-05-05T07:00:41.329Z,21.55
2023-05-05T07:03:09.744Z,22.13
2023-05-05T07:05:38.044Z,23.12
2023-05-05T07:08:06.861Z,23.62
2023-05-05T07:10:34.702Z,24.30
2023-05-05T07:13:03.015Z,23.99
2023-05-05T07:15:34.165Z,24.00
2023-05-05T07:18:02.340Z,23.54
2023-05-05T07:20:30.122Z,23.65
2023-05-05T07:22:58.160Z,24.38
2023-05-05T07:25:26.960Z,24.89
2023-05-05T07:27:55.093Z,25.40
2023-05-05T07:30:25.113Z,26.54
2023-05-05T07:32:55.666Z,26.90
2023-05-05T07:35:23.547Z,26.96
2023-05-05T07:37:51.262Z,27.27
2023-05-05T07:40:19.048Z,26.75
2023-05-05T07:42:47.612Z,26.66
2023-05-05T07:45:15.414Z,26.37
2023-05-05T07:47:43.451Z,26.71
2023-05-05T07:50:12.856Z,27.32
2023-05-05T07:55:12.413Z,27.79
2023-05-05T07:57:40.771Z,27.18
2023-05-05T08:00:10.381Z,27.29
2023-05-05T08:02:42.220Z,27.25
2023-05-05T08:05:10.409Z,26.84
2023-05-05T08:07:41.540Z,26.18
2023-05-05T08:10:10.534Z,25.59
2023-05-05T08:12:38.966Z,25.45
2023-05-05T08:15:07.661Z,25.83
2023-05-05T08:17:47.438Z,26.05
2023-05-05T08:20:16.063Z,26.05
2023-05-05T08:22:45.793Z,26.40
2023-05-05T08:25:14.551Z,27.18
2023-05-05T08:27:43.241Z,28.65
2023-05-05T08:30:11.505Z,30.45
2023-05-05T08:32:39.556Z,31.73
2023-05-05T08:35:08.306Z,32.18
2023-05-05T08:37:36.465Z,32.99
2023-05-05T08:40:06.346Z,31.29
2023-05-05T08:42:38.828Z,30.49
2023-05-05T08:45:07.966Z,30.09
2023-05-05T08:47:36.755Z,29.53
2023-05-05T08:50:05.683Z,29.14
2023-05-05T08:52:38.799Z,28.64
2023-05-05T08:55:12.964Z,28.61
2023-05-05T08:57:43.555Z,29.21
2023-05-05T09:00:12.078Z,28.42
2023-05-05T09:02:40.341Z,29.35
2023-05-05T09:05:09.284Z,30.23
2023-05-05T09:07:38.121Z,31.17
2023-05-05T09:10:06.644Z,32.03
2023-05-05T09:12:36.304Z,31.15
2023-05-05T09:15:04.236Z,31.58
2023-05-05T09:17:32.119Z,32.14
2023-05-05T09:20:05.409Z,31.83
2023-05-05T09:22:37.231Z,31.45
2023-05-05T09:25:05.732Z,31.52
2023-05-05T09:27:38.296Z,31.63
2023-05-05T09:30:06.826Z,30.93
2023-05-05T09:32:44.371Z,30.94
2023-05-05T09:35:12.391Z,30.19
2023-05-05T09:37:40.516Z,29.80
2023-05-05T09:40:09.586Z,29.13
2023-05-05T09:42:39.143Z,28.87
2023-05-05T09:45:24.943Z,29.77
2023-05-05T09:47:58.734Z,30.91
2023-05-05T09:50:31.266Z,31.95
2023-05-05T09:52:59.859Z,30.91
2023-05-05T09:55:28.071Z,30.96
2023-05-05T09:57:57.409Z,29.56
2023-05-05T10:00:38.637Z,26.77
2023-05-05T10:03:06.814Z,26.79
2023-05-05T10:05:34.709Z,27.84
2023-05-05T10:08:13.125Z,28.37
2023-05-05T10:10:46.869Z,28.48
2023-05-05T10:13:16.777Z,27.71
2023-05-05T10:15:46.075Z,26.25
2023-05-05T10:18:16.043Z,28.95
2023-05-05T10:20:44.960Z,26.15
2023-05-05T10:23:15.402Z,27.02
2023-05-05T10:25:45.676Z,26.89
2023-05-05T10:28:17.692Z,29.11
2023-05-05T10:30:50.274Z,28.06
2023-05-05T10:35:55.477Z,32.23
2023-05-05T10:38:26.211Z,33.43
2023-05-05T10:40:55.282Z,35.22
2023-05-05T10:43:23.412Z,33.28
2023-05-05T10:45:53.970Z,33.28
2023-05-05T10:48:24.601Z,32.56
2023-05-05T10:50:58.896Z,32.86
2023-05-05T10:53:29.679Z,32.81
2023-05-05T10:56:05.407Z,31.80
2023-05-05T10:58:38.436Z,31.26
2023-05-05T11:01:10.738Z,30.31
2023-05-05T11:03:38.778Z,30.06
2023-05-05T11:06:16.318Z,29.93
2023-05-05T11:08:45.112Z,31.31
2023-05-05T11:11:13.718Z,28.44
2023-05-05T11:13:42.164Z,28.65
2023-05-05T11:16:37.413Z,30.09
2023-05-05T11:19:26.783Z,31.23
2023-05-05T11:22:04.787Z,31.47
2023-05-05T11:24:33.822Z,32.75
2023-05-05T11:27:01.880Z,29.05
2023-05-05T11:29:52.024Z,28.89
2023-05-05T11:32:20.168Z,34.31
2023-05-05T11:34:53.001Z,37.41
2023-05-05T11:37:23.820Z,35.94
2023-05-05T11:39:57.260Z,34.34
2023-05-05T11:42:25.984Z,35.24
2023-05-05T11:44:54.623Z,36.72
2023-05-05T11:47:27.109Z,35.05
2023-05-05T11:49:57.046Z,37.41
2023-05-05T11:52:26.897Z,38.45
2023-05-05T11:54:54.913Z,37.46
2023-05-05T11:57:28.949Z,37.88
2023-05-05T11:59:58.028Z,29.49
2023-05-05T12:02:27.830Z,34.63
2023-05-05T12:04:59.155Z,36.47
2023-05-05T12:07:27.974Z,39.86
2023-05-05T12:09:56.146Z,39.87
2023-05-05T12:12:35.279Z,34.99
2023-05-05T12:15:04.121Z,33.85
2023-05-05T12:17:42.800Z,33.33
2023-05-05T12:20:13.484Z,32.54
2023-05-05T12:22:41.780Z,35.17
2023-05-05T12:25:10.110Z,36.71
2023-05-05T12:27:39.234Z,36.57
2023-05-05T12:30:14.569Z,30.92
2023-05-05T12:32:42.330Z,33.22
2023-05-05T12:35:10.858Z,35.62
2023-05-05T12:37:40.329Z,37.28
2023-05-05T12:40:09.230Z,39.28
2023-05-05T12:42:40.636Z,39.76
2023-05-05T12:45:17.558Z,35.71
2023-05-05T12:47:45.358Z,37.59
2023-05-05T12:50:13.376Z,36.44
2023-05-05T12:52:46.355Z,37.60
2023-05-05T12:55:14.930Z,39.28
2023-05-05T12:57:57.649Z,39.00
2023-05-05T13:00:26.329Z,38.73
2023-05-05T13:02:54.473Z,34.91
2023-05-05T13:05:30.701Z,30.53
2023-05-05T13:07:59.927Z,29.51
2023-05-05T13:10:28.399Z,29.58
2023-05-05T13:12:57.989Z,28.01
2023-05-05T13:15:25.895Z,28.38
2023-05-05T13:17:59.661Z,31.84
2023-05-05T13:20:27.692Z,35.32
2023-05-05T13:22:55.355Z,36.62
2023-05-05T13:25:24.976Z,35.78
2023-05-05T13:27:52.680Z,36.73
2023-05-05T13:30:20.695Z,38.92
2023-05-05T13:32:48.494Z,40.15
2023-05-05T13:35:17.120Z,41.24
2023-05-05T13:37:46.968Z,40.13
2023-05-05T13:40:15.838Z,36.83
2023-05-05T13:42:45.214Z,32.20
2023-05-05T13:45:14.310Z,33.36
2023-05-05T13:47:44.571Z,35.22
2023-05-05T13:50:12.474Z,36.90
2023-05-05T13:52:40.518Z,37.56
2023-05-05T13:55:08.980Z,37.75
2023-05-05T13:57:36.773Z,36.64
2023-05-05T14:00:07.040Z,31.37
2023-05-05T14:02:35.440Z,28.21
2023-05-05T14:05:03.266Z,29.39
2023-05-05T14:07:32.863Z,32.77
2023-05-05T14:10:00.964Z,32.57
2023-05-05T14:12:28.828Z,30.18
2023-05-05T14:14:56.752Z,32.07
2023-05-05T14:17:25.865Z,33.82
2023-05-05T14:19:53.843Z,34.30
2023-05-05T14:22:21.493Z,32.04
2023-05-05T14:24:49.396Z,28.03
2023-05-05T14:27:17.340Z,27.77
2023-05-05T14:29:45.344Z,28.69
2023-05-05T14:32:13.388Z,28.41
2023-05-05T14:34:42.556Z,28.34
2023-05-05T14:37:10.167Z,29.06
2023-05-05T14:39:38.103Z,29.63
2023-05-05T14:42:06.282Z,30.03
2023-05-05T14:44:34.110Z,29.56
2023-05-05T14:47:02.200Z,28.35
2023-05-05T14:49:32.527Z,28.42
2023-05-05T14:52:02.125Z,27.51
2023-05-05T14:54:30.222Z,25.85
2023-05-05T14:56:58.665Z,26.00
2023-05-05T14:59:27.491Z,25.72
2023-05-05T15:01:55.932Z,25.72
2023-05-05T15:04:24.199Z,25.76
2023-05-05T15:06:52.189Z,25.47
2023-05-05T15:09:21.680Z,25.35
2023-05-05T15:11:50.238Z,25.05
2023-05-05T15:14:18.836Z,24.29
2023-05-05T15:16:50.108Z,24.36
2023-05-05T15:19:18.897Z,24.22
2023-05-05T15:21:53.231Z,23.64
2023-05-05T15:24:26.272Z,23.45
2023-05-05T15:26:59.840Z,23.38
2023-05-05T15:29:27.829Z,22.41
2023-05-05T15:31:55.776Z,21.98
2023-05-05T15:34:23.823Z,21.83
2023-05-05T15:36:52.757Z,21.34
2023-05-05T15:39:22.323Z,21.25
2023-05-05T15:41:50.225Z,20.99
2023-05-05T15:44:19.016Z,20.94
2023-05-05T15:46:50.393Z,20.77
2023-05-05T15:49:20.073Z,20.68
2023-05-05T15:51:48.980Z,20.65
2023-05-05T15:54:17.032Z,20.53
2023-05-05T15:56:46.392Z,20.75
2023-05-05T15:59:15.050Z,20.79
2023-05-05T16:01:43.238Z,20.75
2023-05-05T16:04:11.675Z,20.81
2023-05-05T16:06:39.663Z,20.85
2023-05-05T16:09:07.600Z,20.83
2023-05-05T16:11:35.332Z,20.53
2023-05-05T16:14:05.258Z,20.51
2023-05-05T16:16:33.437Z,20.60
2023-05-05T16:19:01.301Z,20.50
2023-05-05T16:21:29.355Z,20.59
2023-05-05T16:23:57.443Z,20.52
2023-05-05T16:26:25.713Z,20.45
2023-05-05T16:28:53.734Z,20.29
2023-05-05T16:31:24.007Z,20.01
2023-05-05T16:33:52.501Z,19.84
2023-05-05T16:36:20.790Z,19.86
2023-05-05T16:38:49.617Z,19.98
2023-05-05T16:41:17.938Z,20.16
2023-05-05T16:43:46.316Z,20.03
2023-05-05T16:46:14.108Z,19.38
2023-05-05T16:48:43.364Z,18.95
2023-05-05T16:51:11.165Z,18.68
2023-05-05T16:53:39.938Z,18.68
2023-05-05T16:56:08.566Z,18.85
2023-05-05T16:58:36.350Z,18.99
2023-05-05T17:01:04.286Z,18.82
2023-05-05T17:03:32.360Z,18.29
2023-05-05T17:06:01.713Z,18.19
2023-05-05T17:08:29.516Z,18.40
2023-05-05T17:10:57.598Z,18.58
2023-05-05T17:13:25.572Z,18.27
2023-05-05T17:15:55.602Z,18.08
2023-05-05T17:18:28.427Z,18.21
2023-05-05T17:20:57.449Z,18.23
2023-05-05T17:23:27.125Z,18.24
2023-05-05T17:25:55.063Z,18.59
2023-05-05T17:28:22.977Z,19.27
2023-05-05T17:30:51.189Z,19.92
2023-05-05T17:33:21.615Z,20.35
2023-05-05T17:35:49.623Z,20.74
2023-05-05T17:38:17.684Z,20.64
2023-05-05T17:40:47.242Z,20.95
2023-05-05T17:43:14.977Z,21.08
2023-05-05T17:45:42.819Z,20.93
2023-05-05T17:48:10.697Z,20.86
2023-05-05T17:50:38.657Z,20.82
2023-05-05T17:53:06.502Z,20.76
2023-05-05T17:55:34.259Z,20.70
2023-05-05T17:58:03.793Z,20.66
2023-05-05T18:00:32.222Z,20.87
2023-05-05T18:03:01.666Z,21.03
2023-05-05T18:05:30.890Z,21.14
2023-05-05T18:08:00.119Z,21.22
2023-05-05T18:10:28.096Z,21.32
2023-05-05T18:12:58.358Z,21.31
2023-05-05T18:15:31.598Z,21.44
2023-05-05T18:17:59.763Z,21.53
2023-05-05T18:20:27.669Z,21.55
2023-05-05T18:22:55.591Z,21.58
2023-05-05T18:25:23.472Z,21.64
2023-05-05T18:27:52.690Z,21.49
2023-05-05T18:30:23.532Z,21.34
2023-05-05T18:32:52.828Z,21.31
2023-05-05T18:35:22.392Z,21.19
2023-05-05T18:37:50.946Z,21.03
2023-05-05T18:40:19.530Z,20.90
2023-05-05T18:42:47.832Z,20.72
2023-05-05T18:45:16.069Z,20.45
2023-05-05T18:47:46.675Z,20.25
2023-05-05T18:50:16.729Z,20.07
2023-05-05T18:52:44.743Z,19.90
2023-05-05T18:55:12.576Z,20.00
2023-05-05T18:57:41.984Z,20.07
2023-05-05T19:00:10.484Z,20.13
2023-05-05T19:02:38.518Z,20.09
2023-05-05T19:05:07.126Z,20.03
2023-05-05T19:07:38.815Z,19.95
2023-05-05T19:10:07.114Z,19.88
2023-05-05T19:12:35.036Z,19.94
2023-05-05T19:15:03.255Z,19.95
2023-05-05T19:17:31.160Z,19.89
2023-05-05T19:19:59.565Z,19.82
2023-05-05T19:22:27.918Z,19.68
2023-05-05T19:24:57.021Z,19.61
2023-05-05T19:27:25.177Z,19.54
2023-05-05T19:29:55.829Z,19.46
2023-05-05T19:32:25.801Z,19.34
2023-05-05T19:34:54.725Z,19.28
2023-05-05T19:37:22.543Z,19.31
2023-05-05T19:39:51.651Z,19.33
2023-05-05T19:42:21.565Z,19.25
2023-05-05T19:44:49.816Z,19.23
2023-05-05T19:47:18.284Z,19.22
2023-05-05T19:49:46.433Z,19.16
2023-05-05T19:52:14.202Z,19.08
2023-05-05T19:54:43.548Z,19.17
2023-05-05T19:57:12.212Z,19.06
2023-05-05T19:59:43.441Z,19.09
2023-05-05T20:02:12.400Z,18.84
2023-05-05T20:04:41.838Z,18.82
2023-05-05T20:07:09.968Z,18.79
2023-05-05T20:09:39.085Z,18.76
2023-05-05T20:12:07.819Z,18.83
2023-05-05T20:14:36.361Z,18.94
2023-05-05T20:17:08.241Z,18.82
2023-05-05T20:19:36.373Z,18.68
2023-05-05T20:22:04.214Z,18.66
2023-05-05T20:24:33.785Z,18.75
2023-05-05T20:27:05.632Z,18.77
2023-05-05T20:29:33.380Z,18.60
2023-05-05T20:32:02.352Z,18.44
2023-05-05T20:34:33.964Z,18.32
2023-05-05T20:37:01.964Z,18.21
2023-05-05T20:39:29.823Z,18.17
2023-05-05T20:41:57.534Z,18.04
2023-05-05T20:44:25.733Z,17.95
2023-05-05T20:46:53.924Z,18.03
2023-05-05T20:49:22.227Z,18.18
2023-05-05T20:52:01.784Z,18.25
2023-05-05T20:54:32.849Z,18.31
2023-05-05T20:57:02.134Z,18.20
2023-05-05T20:59:32.636Z,18.14
2023-05-05T21:02:00.511Z,18.06
2023-05-05T21:04:28.328Z,18.05
2023-05-05T21:06:57.552Z,18.04
2023-05-05T21:09:25.445Z,17.98
2023-05-05T21:11:54.316Z,18.06
2023-05-05T21:14:22.740Z,18.12
2023-05-05T21:16:51.322Z,18.02
2023-05-05T21:19:20.569Z,17.86
2023-05-05T21:21:51.263Z,17.86
2023-05-05T21:24:22.998Z,17.90
2023-05-05T21:26:53.861Z,17.81
2023-05-05T21:29:21.868Z,17.85
2023-05-05T21:31:49.986Z,17.91
2023-05-05T21:34:18.476Z,17.78
2023-05-05T21:36:46.686Z,17.62
2023-05-05T21:39:15.229Z,17.60
2023-05-05T21:41:45.993Z,17.49
2023-05-05T21:44:14.961Z,17.54
2023-05-05T21:46:43.696Z,17.31
2023-05-05T21:49:15.995Z,17.20
2023-05-05T21:51:44.541Z,17.04
2023-05-05T21:54:12.572Z,16.95
2023-05-05T21:56:40.912Z,16.80
2023-05-05T21:59:10.465Z,16.75
2023-05-05T22:01:38.711Z,16.74
2023-05-05T22:04:07.514Z,16.62
2023-05-05T22:06:35.950Z,16.63
2023-05-05T22:09:04.492Z,16.66
2023-05-05T22:11:35.017Z,16.73
2023-05-05T22:14:03.092Z,16.75
2023-05-05T22:16:32.685Z,16.83
2023-05-05T22:19:02.167Z,16.68
2023-05-05T22:21:30.347Z,16.61
2023-05-05T22:23:58.357Z,16.52
2023-05-05T22:26:27.041Z,16.58
2023-05-05T22:28:55.906Z,16.65
2023-05-05T22:31:23.972Z,16.67
2023-05-05T22:33:53.299Z,16.71
2023-05-05T22:36:22.967Z,16.71
2023-05-05T22:38:53.839Z,16.78
2023-05-05T22:41:22.292Z,16.67
2023-05-05T22:43:50.397Z,16.55
2023-05-05T22:46:18.215Z,16.28
2023-05-05T22:48:46.831Z,16.16
2023-05-05T22:51:17.947Z,16.12
2023-05-05T22:53:46.103Z,16.10
2023-05-05T22:56:14.419Z,16.15
2023-05-05T22:58:42.634Z,16.00
2023-05-05T23:01:11.171Z,15.91
2023-05-05T23:03:39.743Z,15.82
2023-05-05T23:06:13.738Z,15.74
2023-05-05T23:08:45.093Z,15.71
2023-05-05T23:11:13.497Z,15.68
2023-05-05T23:13:42.781Z,15.55
2023-05-05T23:16:10.850Z,15.58
2023-05-05T23:18:39.355Z,15.53
2023-05-05T23:21:07.878Z,15.53
2023-05-05T23:23:37.115Z,15.51
2023-05-05T23:26:06.228Z,15.62
2023-05-05T23:31:29.540Z,16.09
2023-05-05T23:33:59.065Z,16.06
2023-05-05T23:36:27.451Z,16.02
2023-05-05T23:38:55.698Z,16.04
2023-05-05T23:41:27.351Z,16.04
2023-05-05T23:43:55.925Z,15.96
2023-05-05T23:46:24.144Z,15.89
2023-05-05T23:48:52.379Z,15.78
2023-05-05T23:51:20.603Z,15.55
2023-05-05T23:53:49.050Z,15.39
2023-05-05T23:56:17.234Z,15.11
2023-05-05T23:58:46.763Z,14.85
